Time;durP1;ratioP1;P1;durP2;ratioP2;P2;SDS_P1;SDS_P2;PMS_P1;PMS_P2;Temp;Humidity;BMP_temperature;BMP_pressure;BME280_temperature;BME280_humidity;BME280_pressure;Samples;Min_cycle;Max_cycle;Signal;HPM_P1;HPM_P2
2021/03/19 00:01:49;;;;;;;24.60;15.73;;;;;;;5.65;68.52;100575.41;4997708;28;20496;-75
2021/03/19 00:04:21;;;;;;;20.30;15.23;;;;;;;5.59;68.63;100579.28;4997934;28;20106;-75
2021/03/19 00:06:53;;;;;;;25.50;16.95;;;;;;;5.47;68.67;100577.59;4997896;28;20057;-76
2021/03/19 00:09:24;;;;;;;27.52;17.73;;;;;;;5.34;69.02;100580.94;5000187;28;20058;-75
2021/03/19 00:11:53;;;;;;;24.90;17.67;;;;;;;5.25;69.20;100583.44;5012319;28;20514;-75
2021/03/19 00:14:26;;;;;;;26.27;17.73;;;;;;;5.15;69.20;100577.91;4998012;28;20058;-76
2021/03/19 00:16:54;;;;;;;28.13;18.25;;;;;;;5.06;69.55;100590.59;4998051;28;20523;-76
2021/03/19 00:19:23;;;;;;;27.85;18.35;;;;;;;4.96;69.49;100579.56;4997664;28;20065;-76
2021/03/19 00:21:55;;;;;;;30.07;19.80;;;;;;;4.82;69.85;100591.13;4998021;28;20408;-76
2021/03/19 00:24:23;;;;;;;31.40;20.33;;;;;;;4.76;70.16;100585.84;4998777;28;20054;-76
2021/03/19 00:26:54;;;;;;;32.22;20.50;;;;;;;4.67;70.61;100586.38;4998120;28;20054;-76
2021/03/19 00:29:24;;;;;;;37.28;21.80;;;;;;;4.62;70.91;100597.44;5014728;28;20468;-75
2021/03/19 00:31:54;;;;;;;34.03;20.60;;;;;;;4.62;71.32;100596.56;5017519;28;20406;-76
2021/03/19 00:34:23;;;;;;;32.20;20.15;;;;;;;4.61;71.30;100593.00;5018102;28;20099;-76
2021/03/19 00:36:52;;;;;;;30.13;20.60;;;;;;;4.65;71.37;100599.63;5017543;28;20054;-76
2021/03/19 00:39:25;;;;;;;32.30;20.38;;;;;;;4.66;71.79;100600.44;5017461;28;20057;-76
2021/03/19 00:41:54;;;;;;;27.98;18.52;;;;;;;4.71;71.65;100602.41;5017345;28;20057;-75
2021/03/19 00:44:25;;;;;;;27.52;18.00;;;;;;;4.73;71.45;100601.03;4998875;28;20058;-76
2021/03/19 00:46:58;;;;;;;27.60;18.05;;;;;;;4.74;71.35;100602.69;4997433;28;20069;-76
2021/03/19 00:49:28;;;;;;;26.15;17.52;;;;;;;4.76;71.13;100603.25;5012034;28;20053;-76
2021/03/19 00:51:58;;;;;;;26.90;18.63;;;;;;;4.72;71.27;100610.41;5017118;28;20058;-75
2021/03/19 00:54:26;;;;;;;24.05;17.83;;;;;;;4.72;71.16;100606.81;5017420;28;20057;-76
2021/03/19 00:57:00;;;;;;;29.15;18.92;;;;;;;4.71;70.99;100606.00;5017245;28;20065;-75
2021/03/19 00:59:31;;;;;;;30.77;20.00;;;;;;;4.68;70.57;100603.75;4997470;28;20054;-76
2021/03/19 01:02:01;;;;;;;32.08;18.98;;;;;;;4.65;70.33;100601.56;4996863;28;20061;-75
2021/03/19 01:04:30;;;;;;;35.08;20.30;;;;;;;4.62;70.76;100604.84;4998369;28;20066;-76
2021/03/19 01:07:00;;;;;;;30.77;20.17;;;;;;;4.55;70.65;100599.59;4998137;28;20073;-76
2021/03/19 01:09:30;;;;;;;33.95;21.25;;;;;;;4.54;71.42;100603.47;4997814;28;20444;-75
2021/03/19 01:11:59;;;;;;;32.47;20.70;;;;;;;4.50;71.54;100601.53;4999503;28;20542;-76
2021/03/19 01:14:27;;;;;;;33.28;21.40;;;;;;;4.47;71.03;100598.22;4997434;28;20076;-75
2021/03/19 01:16:57;;;;;;;33.40;20.50;;;;;;;4.43;70.92;100599.84;4996545;28;20067;-75
2021/03/19 01:19:31;;;;;;;38.50;21.65;;;;;;;4.35;71.17;100597.59;4996730;28;20058;-75
2021/03/19 01:22:02;;;;;;;34.88;22.42;;;;;;;4.29;71.12;100603.38;4996988;28;20054;-76
2021/03/19 01:24:30;;;;;;;41.28;23.17;;;;;;;4.21;71.08;100613.81;5006630;28;20419;-76
2021/03/19 01:27:01;;;;;;;43.90;25.17;;;;;;;4.14;71.15;100617.94;5016731;28;20058;-76
2021/03/19 01:29:29;;;;;;;39.53;23.58;;;;;;;4.12;71.58;100620.94;5015818;28;20066;-75
2021/03/19 01:31:56;;;;;;;40.67;24.60;;;;;;;4.09;71.04;100626.97;5015672;28;20066;-76
2021/03/19 01:34:26;;;;;;;39.90;24.50;;;;;;;4.04;71.39;100624.19;5015520;28;20065;-76
2021/03/19 01:36:55;;;;;;;49.63;26.05;;;;;;;4.03;71.36;100634.41;5015286;28;20061;-76
2021/03/19 01:39:24;;;;;;;47.08;26.30;;;;;;;4.02;71.27;100621.69;5004880;28;20081;-76
2021/03/19 01:41:53;;;;;;;43.53;26.20;;;;;;;3.96;71.73;100628.28;5011812;28;20057;-76
2021/03/19 01:44:21;;;;;;;49.17;27.20;;;;;;;3.90;71.94;100628.53;5017489;28;20054;-76
2021/03/19 01:47:28;;;;;;;46.85;26.50;;;;;;;3.87;71.45;100618.88;5018408;28;20069;-76
2021/03/19 01:50:32;;;;;;;54.70;28.58;;;;;;;3.82;72.11;100621.56;5017004;28;20069;-76
2021/03/19 01:53:37;;;;;;;51.85;29.42;;;;;;;3.86;72.19;100631.81;5016970;28;20058;-76
2021/03/19 01:56:41;;;;;;;52.35;28.13;;;;;;;3.91;72.37;100628.25;5005362;28;20134;-76
2021/03/19 01:59:45;;;;;;;51.28;27.75;;;;;;;3.94;72.45;100638.75;4999118;28;20065;-76
2021/03/19 02:02:50;;;;;;;49.92;28.55;;;;;;;3.95;72.93;100637.66;5002273;28;20054;-75
2021/03/19 02:05:55;;;;;;;48.78;28.25;;;;;;;3.96;72.57;100636.53;5000443;28;20065;-76
2021/03/19 02:08:59;;;;;;;51.80;28.27;;;;;;;3.89;72.63;100633.22;5000970;28;20058;-75
2021/03/19 02:12:06;;;;;;;51.55;29.02;;;;;;;3.85;72.58;100632.09;5002918;28;20535;-76
2021/03/19 02:15:13;;;;;;;57.42;30.33;;;;;;;3.81;72.38;100641.97;5003104;28;20066;-75
2021/03/19 02:18:18;;;;;;;60.30;31.40;;;;;;;3.83;72.49;100645.28;5002026;28;20065;-75
2021/03/19 02:21:22;;;;;;;57.78;30.30;;;;;;;3.82;73.03;100643.63;5001254;28;20062;-75
2021/03/19 02:24:27;;;;;;;58.47;30.60;;;;;;;3.84;72.77;100641.44;5006212;28;20058;-76
2021/03/19 02:27:33;;;;;;;61.90;32.60;;;;;;;3.87;73.11;100635.41;5022605;28;20050;-75
2021/03/19 02:30:37;;;;;;;56.45;30.25;;;;;;;3.93;73.95;100639.03;5020381;28;20049;-75
2021/03/19 02:33:07;;;;;;;55.95;30.58;;;;;;;4.00;74.19;100643.19;5004154;28;20080;-75
2021/03/19 02:35:51;;;;;;;51.38;29.00;;;;;;;4.12;74.23;100644.94;5008025;28;20070;-76
2021/03/19 02:38:18;;;;;;;44.65;27.15;;;;;;;4.19;73.89;100645.50;5016059;28;20057;-75
2021/03/19 02:40:45;;;;;;;42.97;25.92;;;;;;;4.31;73.91;100659.09;5016198;28;20053;-75
2021/03/19 02:43:12;;;;;;;46.72;26.35;;;;;;;4.36;74.04;100651.66;5004375;28;20101;-75
2021/03/19 02:45:39;;;;;;;44.08;26.42;;;;;;;4.48;73.63;100651.44;4996616;28;20065;-75
2021/03/19 02:48:10;;;;;;;41.55;26.63;;;;;;;4.55;73.69;100659.47;5000582;28;20058;-75
2021/03/19 02:50:38;;;;;;;42.88;27.45;;;;;;;4.65;73.56;100656.75;5015960;28;20395;-75
2021/03/19 02:53:05;;;;;;;36.33;24.83;;;;;;;4.71;73.09;100652.91;5016095;28;20057;-75
2021/03/19 02:55:33;;;;;;;34.92;24.38;;;;;;;4.77;72.87;100657.34;5004849;28;20062;-75
2021/03/19 02:58:00;;;;;;;33.30;22.58;;;;;;;4.85;72.20;100648.53;4996287;28;20054;-75
2021/03/19 03:00:27;;;;;;;33.97;23.25;;;;;;;4.90;71.77;100663.44;4996571;28;20046;-75
2021/03/19 03:02:54;;;;;;;34.28;23.85;;;;;;;4.94;71.52;100670.09;4996999;28;20046;-75
2021/03/19 03:05:21;;;;;;;32.45;22.30;;;;;;;4.95;71.32;100674.50;4996924;28;20066;-75
2021/03/19 03:07:48;;;;;;;32.42;23.00;;;;;;;5.01;71.39;100678.94;5009334;28;20064;-75
2021/03/19 03:10:18;;;;;;;33.55;22.98;;;;;;;5.05;70.90;100682.81;5015241;28;20058;-75
2021/03/19 03:12:44;;;;;;;32.42;23.05;;;;;;;5.06;70.38;100684.44;5016040;28;20165;-75
2021/03/19 03:15:14;;;;;;;32.08;22.88;;;;;;;5.10;70.43;100688.31;5016159;28;20053;-75
2021/03/19 03:17:42;;;;;;;30.88;21.20;;;;;;;5.15;70.05;100688.34;5015825;28;20407;-75
2021/03/19 03:20:12;;;;;;;30.15;22.13;;;;;;;5.13;70.24;100698.84;5017165;28;20392;-75
2021/03/19 03:22:39;;;;;;;;;;;;;;;5.16;70.42;100695.53;5002275;28;20058;-76
2021/03/19 03:25:07;;;;;;;33.47;22.25;;;;;;;5.17;69.91;100702.72;4997229;28;19928;-75
2021/03/19 03:27:34;;;;;;;31.90;21.58;;;;;;;5.20;70.02;100702.16;4995323;28;20548;-75
2021/03/19 03:30:01;;;;;;;32.45;23.67;;;;;;;5.22;70.02;100716.53;4995661;28;20408;-75
2021/03/19 03:32:28;;;;;;;32.70;24.00;;;;;;;5.25;69.79;100718.75;4996847;28;20058;-75
2021/03/19 03:34:55;;;;;;;34.60;24.50;;;;;;;5.18;69.26;100734.72;4995856;28;20492;-75
2021/03/19 03:37:22;;;;;;;32.38;24.13;;;;;;;5.21;69.23;100738.91;4996161;28;20046;-75
2021/03/19 03:39:57;;;;;;;33.05;24.02;;;;;;;5.23;68.64;100740.28;5010355;28;20058;-75
2021/03/19 03:42:24;;;;;;;33.60;24.20;;;;;;;5.21;68.65;100747.19;5015584;28;20057;-75
2021/03/19 03:44:51;;;;;;;33.92;24.27;;;;;;;5.21;68.97;100741.66;5015030;28;20068;-75
2021/03/19 03:47:18;;;;;;;33.45;23.15;;;;;;;5.23;68.44;100739.47;5015196;28;20061;-75
2021/03/19 03:49:45;;;;;;;32.85;22.00;;;;;;;5.16;68.11;100736.94;5015084;28;20050;-75
2021/03/19 03:52:14;;;;;;;33.58;23.30;;;;;;;5.12;68.56;100746.03;5015098;28;20062;-75
2021/03/19 03:54:41;;;;;;;30.33;22.35;;;;;;;5.11;68.47;100750.75;5014108;28;20066;-75
2021/03/19 03:57:08;;;;;;;31.83;22.63;;;;;;;5.11;68.49;100752.69;5015371;28;20057;-75
2021/03/19 03:59:35;;;;;;;27.92;20.02;;;;;;;5.11;68.43;100752.69;4996084;28;20066;-75
2021/03/19 04:02:15;;;;;;;29.10;20.30;;;;;;;5.14;68.25;100760.41;4995904;28;20054;-75
2021/03/19 04:04:42;;;;;;;30.95;21.15;;;;;;;5.14;68.10;100761.22;4995175;28;20054;-75
2021/03/19 04:07:09;;;;;;;32.15;22.42;;;;;;;5.08;68.48;100756.78;4995470;28;20054;-75
2021/03/19 04:09:42;;;;;;;28.77;21.17;;;;;;;5.10;67.95;100765.63;4995815;28;20069;-75
2021/03/19 04:12:11;;;;;;;33.08;22.00;;;;;;;5.12;67.98;100768.97;4998040;28;20063;-76
2021/03/19 04:14:39;;;;;;;33.53;22.08;;;;;;;5.08;67.43;100776.13;5014951;28;20514;-76
2021/03/19 04:17:08;;;;;;;32.40;21.98;;;;;;;4.99;67.82;100780.50;5015161;28;20058;-76
2021/03/19 04:19:36;;;;;;;38.15;23.42;;;;;;;4.98;67.73;100784.38;5014675;28;20060;-75
2021/03/19 04:22:03;;;;;;;30.38;21.55;;;;;;;4.95;67.95;100788.50;5013853;28;20061;-76
2021/03/19 04:24:31;;;;;;;31.55;21.65;;;;;;;4.88;67.63;100768.59;5003453;28;20089;-76
2021/03/19 04:26:58;;;;;;;32.88;22.55;;;;;;;4.81;67.65;100774.38;4995588;28;20085;-76
2021/03/19 04:29:26;;;;;;;40.38;24.45;;;;;;;4.72;67.91;100777.91;4995273;28;20065;-76
2021/03/19 04:31:53;;;;;;;35.35;23.95;;;;;;;4.59;68.17;100779.19;4995093;28;20472;-75
2021/03/19 04:34:20;;;;;;;39.17;24.83;;;;;;;4.50;68.33;100784.41;4994850;28;20542;-76
2021/03/19 04:36:52;;;;;;;39.75;25.00;;;;;;;4.48;68.72;100787.41;4994520;28;20062;-75
2021/03/19 04:39:23;;;;;;;37.60;24.42;;;;;;;4.46;69.12;100780.50;4995459;28;20070;-75
2021/03/19 04:41:53;;;;;;;32.78;22.52;;;;;;;4.47;69.14;100790.44;4994451;28;20054;-75
2021/03/19 04:44:22;;;;;;;33.00;22.17;;;;;;;4.48;69.06;100781.06;4994317;28;20415;-75
2021/03/19 04:46:50;;;;;;;34.25;23.15;;;;;;;4.51;68.99;100787.97;4995494;28;20062;-75
2021/03/19 04:49:17;;;;;;;33.28;21.83;;;;;;;4.53;68.64;100791.31;5008264;28;20062;-75
2021/03/19 04:51:44;;;;;;;34.60;21.75;;;;;;;4.51;68.57;100799.00;5014805;28;20395;-75
2021/03/19 04:54:12;;;;;;;30.00;20.33;;;;;;;4.54;68.41;100802.06;5003436;28;20123;-75
2021/03/19 04:56:39;;;;;;;33.08;21.63;;;;;;;4.54;68.77;100804.00;4994619;28;20054;-75
2021/03/19 04:59:07;;;;;;;33.17;20.70;;;;;;;4.57;68.26;100797.94;4994553;28;20062;-75
2021/03/19 05:01:46;;;;;;;32.35;20.35;;;;;;;4.57;68.45;100808.97;4995298;28;20054;-75
2021/03/19 05:04:14;;;;;;;35.03;22.08;;;;;;;4.55;68.10;100813.94;4994201;28;20065;-75
2021/03/19 05:06:44;;;;;;;37.60;22.77;;;;;;;4.49;67.60;100813.06;4994643;28;20054;-76
2021/03/19 05:09:11;;;;;;;36.65;23.83;;;;;;;4.39;67.48;100813.84;4995732;28;20054;-75
2021/03/19 05:11:38;;;;;;;39.95;23.13;;;;;;;4.30;67.95;100811.81;4995313;28;20054;-75
2021/03/19 05:14:05;;;;;;;43.88;24.23;;;;;;;4.17;67.41;100816.69;4994490;28;20054;-75
2021/03/19 05:16:32;;;;;;;40.80;24.77;;;;;;;4.07;67.64;100825.72;4994473;28;20368;-75
2021/03/19 05:18:59;;;;;;;43.10;24.88;;;;;;;3.96;68.04;100843.25;4994515;28;20054;-78
2021/03/19 05:21:27;;;;;;;45.67;25.83;;;;;;;3.86;67.79;100837.63;4994472;28;20066;-76
2021/03/19 05:23:54;;;;;;;43.15;25.77;;;;;;;3.76;68.46;100843.03;4995298;28;20061;-75
2021/03/19 05:26:21;;;;;;;46.78;26.95;;;;;;;3.66;69.07;100841.84;4994279;28;20054;-76
2021/03/19 05:28:48;;;;;;;48.35;25.90;;;;;;;3.52;69.11;100845.28;4993839;28;20062;-75
2021/03/19 05:31:15;;;;;;;44.22;26.17;;;;;;;3.43;69.42;100840.22;4994428;28;20054;-76
2021/03/19 05:33:45;;;;;;;45.70;24.88;;;;;;;3.35;69.19;100848.09;4994323;28;20066;-76
2021/03/19 05:36:13;;;;;;;46.20;25.60;;;;;;;3.23;69.02;100843.56;4994966;28;20058;-76
2021/03/19 05:38:41;;;;;;;50.13;27.27;;;;;;;3.17;69.73;100852.84;5005757;28;20055;-75
2021/03/19 05:41:09;;;;;;;50.75;26.73;;;;;;;3.10;70.01;100846.69;5002799;28;20061;-75
2021/03/19 05:43:38;;;;;;;48.70;25.80;;;;;;;3.03;69.44;100846.06;4998455;28;20519;-76
2021/03/19 05:46:09;;;;;;;48.93;26.13;;;;;;;2.94;69.86;100853.06;5004257;28;20177;-76
2021/03/19 05:48:42;;;;;;;50.45;27.17;;;;;;;2.89;69.37;100858.53;5010424;28;20053;-75
2021/03/19 05:51:21;;;;;;;50.60;27.48;;;;;;;2.80;70.20;100852.63;5005975;28;20061;-76
2021/03/19 05:53:55;;;;;;;54.88;27.00;;;;;;;2.79;69.97;100867.44;5011028;28;20058;-75
2021/03/19 05:56:25;;;;;;;49.72;27.15;;;;;;;2.74;70.04;100865.47;5013646;28;20057;-76
2021/03/19 05:58:52;;;;;;;;;;;;;;;2.67;70.93;100864.81;5007383;28;20419;-76
2021/03/19 06:01:19;;;;;;;52.75;25.45;;;;;;;2.64;69.96;100865.31;5011803;28;19921;-76
2021/03/19 06:03:47;;;;;;;53.25;27.55;;;;;;;2.67;70.01;100866.72;5001531;28;20058;-76
2021/03/19 06:06:15;;;;;;;58.10;28.55;;;;;;;2.65;70.09;100872.50;5007122;28;20480;-76
2021/03/19 06:08:45;;;;;;;56.90;28.88;;;;;;;2.61;69.95;100869.41;5013269;28;20053;-76
2021/03/19 06:11:18;;;;;;;51.08;27.63;;;;;;;2.63;70.49;100871.91;5013643;28;20065;-75
2021/03/19 06:13:50;;;;;;;56.92;28.58;;;;;;;2.58;70.41;100883.66;5013850;28;20061;-75
2021/03/19 06:16:30;;;;;;;58.20;28.77;;;;;;;2.52;70.60;100876.41;5013432;28;20066;-76
2021/03/19 06:18:59;;;;;;;53.78;26.85;;;;;;;2.52;70.68;100884.66;5013495;28;20049;-75
2021/03/19 06:21:28;;;;;;;58.75;28.60;;;;;;;2.56;70.00;100891.34;5013755;28;20061;-75
2021/03/19 06:24:21;;;;;;;54.23;28.90;;;;;;;2.57;70.16;100897.66;5003832;28;20060;-75
2021/03/19 06:26:51;;;;;;;57.78;28.60;;;;;;;2.56;69.85;100906.97;4994587;28;20497;-75
2021/03/19 06:29:26;;;;;;;58.58;29.42;;;;;;;2.57;69.84;100901.22;4993824;28;20062;-77
2021/03/19 06:32:13;;;;;;;59.50;29.48;;;;;;;2.66;70.21;100906.31;4994105;28;20054;-77
2021/03/19 06:34:55;;;;;;;53.85;27.58;;;;;;;2.74;70.01;100909.47;5004058;28;20046;-77
2021/03/19 06:37:29;;;;;;;51.47;27.20;;;;;;;2.79;70.21;100901.31;4994135;28;20077;-77
2021/03/19 06:39:57;;;;;;;43.60;24.70;;;;;;;2.84;69.54;100904.13;4996890;28;20080;-75
2021/03/19 06:42:34;;;;;;;44.17;24.25;;;;;;;2.93;69.64;100906.44;5012702;28;20049;-75
2021/03/19 06:45:07;;;;;;;45.17;24.00;;;;;;;2.97;69.93;100907.63;5014451;28;20491;-75
2021/03/19 06:47:40;;;;;;;39.80;23.50;;;;;;;3.09;69.56;100910.25;5016516;28;20062;-76
2021/03/19 06:50:11;;;;;;;38.83;22.77;;;;;;;3.17;69.58;100909.81;4996965;28;20088;-76
2021/03/19 06:52:38;;;;;;;37.38;22.08;;;;;;;3.21;69.60;100908.22;4997849;28;20051;-76
2021/03/19 06:55:06;;;;;;;33.03;21.08;;;;;;;3.33;68.63;100910.84;4997141;28;20058;-76
2021/03/19 06:57:47;;;;;;;32.45;20.13;;;;;;;3.47;67.93;100920.41;4997132;28;20061;-75
2021/03/19 07:00:33;;;;;;;34.10;21.08;;;;;;;3.71;67.63;100929.22;5010684;28;20057;-76
2021/03/19 07:03:11;;;;;;;30.88;19.50;;;;;;;4.29;67.30;100923.25;5016132;28;20061;-76
2021/03/19 07:06:11;;;;;;;22.13;15.13;;;;;;;5.05;64.69;100911.94;4998921;28;20069;-76
2021/03/19 07:08:46;;;;;;;22.65;14.38;;;;;;;5.35;63.46;100924.25;4996965;28;20496;-77
2021/03/19 07:11:42;;;;;;;19.58;13.68;;;;;;;5.32;61.47;100930.34;5005301;28;20488;-76
2021/03/19 07:14:43;;;;;;;21.70;14.82;;;;;;;5.25;62.07;100934.16;5002894;28;20057;-76
2021/03/19 07:17:22;;;;;;;21.17;13.10;;;;;;;5.38;61.46;100935.63;5014705;28;20050;-76
2021/03/19 07:20:00;;;;;;;19.25;13.50;;;;;;;5.37;61.39;100941.41;5014503;28;20054;-76
2021/03/19 07:22:49;;;;;;;18.25;13.10;;;;;;;5.36;60.43;100945.28;5014307;28;20057;-76
2021/03/19 07:25:36;;;;;;;17.67;12.97;;;;;;;5.35;61.08;100946.38;5014440;28;20054;-76
2021/03/19 07:28:36;;;;;;;18.55;13.60;;;;;;;5.38;60.59;100956.91;5010455;28;20046;-79
2021/03/19 07:31:19;;;;;;;16.02;12.27;;;;;;;5.41;60.47;100959.09;5010336;28;20062;-78
2021/03/19 07:34:00;;;;;;;16.85;11.77;;;;;;;5.46;60.39;100970.19;5012039;28;20062;-79
2021/03/19 07:36:41;;;;;;;15.77;11.52;;;;;;;5.54;59.79;100969.66;5015675;28;20054;-81
2021/03/19 07:39:39;;;;;;;15.93;11.43;;;;;;;5.62;60.33;100965.56;5016398;28;20050;-78
2021/03/19 07:42:40;;;;;;;18.58;11.30;;;;;;;5.80;60.05;100975.34;5014811;28;20062;-79
2021/03/19 07:45:15;;;;;;;15.80;11.25;;;;;;;6.09;59.40;100978.50;5015731;28;20077;-77
2021/03/19 07:48:06;;;;;;;18.15;10.50;;;;;;;6.33;58.98;101000.16;5014198;28;20058;-76
2021/03/19 07:50:39;;;;;;;15.23;11.82;;;;;;;6.61;58.25;100998.81;5007559;28;20054;-75
2021/03/19 07:53:34;;;;;;;12.55;10.00;;;;;;;6.93;56.43;100994.94;5013874;28;20053;-75
2021/03/19 07:56:04;;;;;;;13.07;9.77;;;;;;;7.62;53.94;101002.63;5012506;28;20058;-75
2021/03/19 07:58:45;;;;;;;13.35;9.38;;;;;;;8.81;51.30;101000.91;5005383;28;20077;-75
2021/03/19 08:01:22;;;;;;;10.40;7.88;;;;;;;10.03;47.56;100999.94;5010760;28;20068;-75
2021/03/19 08:03:56;;;;;;;9.50;8.02;;;;;;;11.40;45.15;101003.72;5013752;28;20061;-75
2021/03/19 08:06:32;;;;;;;13.00;7.80;;;;;;;11.56;43.20;101002.28;5013747;28;20384;-75
2021/03/19 08:09:07;;;;;;;11.50;7.80;;;;;;;11.79;41.98;101006.03;5012811;28;20054;-75
2021/03/19 08:11:42;;;;;;;10.65;8.00;;;;;;;12.06;41.03;101015.59;5008363;28;20495;-75
2021/03/19 08:14:47;;;;;;;11.18;8.10;;;;;;;12.31;41.19;101011.41;5009944;28;20435;-74
2021/03/19 08:17:34;;;;;;;10.40;8.18;;;;;;;13.27;38.62;101018.63;4996934;28;20050;-76
2021/03/19 08:20:23;;;;;;;12.15;8.35;;;;;;;12.62;39.41;101010.72;5012589;28;20058;-76
2021/03/19 08:22:59;;;;;;;9.50;8.50;;;;;;;13.06;38.03;101014.69;5005532;28;20050;-75
2021/03/19 08:25:33;;;;;;;9.95;7.30;;;;;;;12.91;38.14;101025.09;5008210;28;20062;-74
2021/03/19 08:28:06;;;;;;;9.80;8.25;;;;;;;12.59;39.26;101026.97;5011485;28;20403;-74
2021/03/19 08:30:44;;;;;;;13.05;7.93;;;;;;;12.30;38.91;101020.94;5009997;28;20072;-73
2021/03/19 08:33:17;;;;;;;11.07;7.93;;;;;;;12.12;39.39;101026.34;5011609;28;20058;-73
2021/03/19 08:35:52;;;;;;;10.45;8.07;;;;;;;15.27;33.87;101021.13;5011756;28;20065;-73
2021/03/19 08:38:26;;;;;;;8.95;7.07;;;;;;;17.52;30.56;101019.28;5012159;28;20504;-75
2021/03/19 08:40:57;;;;;;;8.95;7.78;;;;;;;18.17;28.95;101028.78;5010218;28;20045;-74
2021/03/19 08:43:28;;;;;;;8.18;7.18;;;;;;;20.38;25.63;101026.97;5010229;28;20053;-73
2021/03/19 08:46:00;;;;;;;8.07;7.07;;;;;;;20.45;24.48;101026.31;5009662;28;20225;-74
2021/03/19 08:48:27;;;;;;;9.90;7.03;;;;;;;22.30;22.90;101024.75;5005024;28;20058;-74
2021/03/19 08:51:12;;;;;;;8.88;7.30;;;;;;;23.82;21.62;101020.63;4995552;28;20062;-73
2021/03/19 08:54:15;;;;;;;8.43;7.47;;;;;;;24.53;20.63;101025.28;4998244;28;20058;-73
2021/03/19 08:56:45;;;;;;;6.90;6.22;;;;;;;25.46;18.50;101022.84;5005574;28;20072;-73
2021/03/19 08:59:32;;;;;;;8.13;6.45;;;;;;;25.88;18.11;101024.16;5012189;28;20065;-74
2021/03/19 09:02:00;;;;;;;9.07;6.40;;;;;;;25.11;18.69;101032.91;5009539;28;20058;-74
2021/03/19 09:05:13;;;;;;;7.18;6.50;;;;;;;25.00;18.76;101037.75;5007546;28;20408;-74
2021/03/19 09:08:08;;;;;;;7.15;6.30;;;;;;;24.42;19.95;101038.56;4992944;28;20062;-74
2021/03/19 09:10:59;;;;;;;7.43;5.97;;;;;;;26.00;17.50;101031.53;5003910;28;20058;-74
2021/03/19 09:13:27;;;;;;;8.43;6.03;;;;;;;26.21;17.31;101030.72;5012308;28;20054;-75
2021/03/19 09:15:56;;;;;;;7.75;5.68;;;;;;;25.61;17.65;101037.97;5005471;28;20050;-74
2021/03/19 09:18:47;;;;;;;6.13;5.53;;;;;;;24.75;18.15;101031.91;5004834;28;20057;-75
2021/03/19 09:21:29;;;;;;;5.88;5.28;;;;;;;23.20;19.43;101031.69;5010093;28;20407;-75
2021/03/19 09:24:07;;;;;;;5.53;4.78;;;;;;;21.17;21.75;101044.94;5012675;28;20410;-74
2021/03/19 09:26:46;;;;;;;6.45;5.18;;;;;;;20.81;21.78;101049.78;5013564;28;20065;-74
2021/03/19 09:29:26;;;;;;;7.50;6.10;;;;;;;20.56;23.52;101050.03;5012203;28;20052;-75
2021/03/19 09:31:54;;;;;;;7.63;5.70;;;;;;;20.51;23.69;101052.31;5008524;28;20057;-74
2021/03/19 09:34:45;;;;;;;5.57;4.63;;;;;;;19.14;24.26;101059.19;5012699;28;20058;-74
2021/03/19 09:37:48;;;;;;;7.85;4.95;;;;;;;21.46;22.92;101054.81;5013763;28;20495;-74
2021/03/19 09:40:52;;;;;;;7.93;5.18;;;;;;;19.22;24.81;101067.50;5009651;28;20502;-74
2021/03/19 09:43:46;;;;;;;6.93;4.82;;;;;;;19.86;23.88;101067.69;5003939;28;20058;-74
2021/03/19 09:46:17;;;;;;;6.80;5.10;;;;;;;19.02;25.47;101074.16;5003452;28;20073;-74
2021/03/19 09:48:56;;;;;;;7.18;4.95;;;;;;;17.84;26.75;101086.03;5012242;28;20053;-76
2021/03/19 09:51:40;;;;;;;5.38;4.82;;;;;;;18.39;25.59;101085.88;5011785;28;20050;-77
2021/03/19 09:54:41;;;;;;;6.10;5.50;;;;;;;17.86;26.70;101091.34;5005609;28;20431;-75
2021/03/19 09:57:23;;;;;;;5.95;5.18;;;;;;;20.66;23.63;101094.78;5010827;28;20061;-73
2021/03/19 09:59:56;;;;;;;6.72;4.20;;;;;;;21.91;22.76;101080.81;5002551;28;20077;-76
2021/03/19 10:02:26;;;;;;;5.22;4.60;;;;;;;22.05;21.57;101078.22;5009938;28;20050;-76
2021/03/19 10:04:54;;;;;;;3.70;3.30;;;;;;;21.52;21.97;101083.69;5002907;28;20054;-74
2021/03/19 10:07:23;;;;;;;4.88;3.88;;;;;;;22.40;21.55;101085.72;5007174;28;20419;-74
2021/03/19 10:09:54;;;;;;;5.40;3.30;;;;;;;20.35;23.35;101091.94;5011298;28;20045;-74
2021/03/19 10:12:28;;;;;;;5.03;3.50;;;;;;;18.91;24.56;101095.59;5011519;28;20407;-74
2021/03/19 10:14:57;;;;;;;5.68;4.18;;;;;;;17.60;25.96;101098.06;5004560;28;20057;-76
2021/03/19 10:17:27;;;;;;;6.25;3.25;;;;;;;18.73;24.30;101092.19;5011847;28;20081;-77
2021/03/19 10:19:58;;;;;;;5.20;3.20;;;;;;;19.01;24.40;101090.28;5011533;28;20050;-75
2021/03/19 10:22:40;;;;;;;5.05;3.30;;;;;;;18.59;25.08;101101.84;5013176;28;20050;-74
2021/03/19 10:25:28;;;;;;;3.58;3.28;;;;;;;20.16;23.71;101090.69;4999753;28;20073;-75
2021/03/19 10:27:58;;;;;;;3.85;3.10;;;;;;;24.65;18.71;101078.25;5011108;28;20065;-75
2021/03/19 10:30:26;;;;;;;;;;;;;;;25.52;17.53;101083.19;5015798;28;20054;-76
2021/03/19 10:32:57;;;;;;;3.60;2.85;;;;;;;26.68;16.13;101068.63;5015764;28;19929;-76
2021/03/19 10:35:31;;;;;;;3.65;2.90;;;;;;;27.60;14.92;101067.94;5011848;28;20615;-75
2021/03/19 10:38:06;;;;;;;3.42;2.75;;;;;;;26.87;15.23;101072.28;4997324;28;20058;-75
2021/03/19 10:40:39;;;;;;;4.57;3.20;;;;;;;29.47;14.08;101076.44;5015276;28;20100;-75
2021/03/19 10:43:16;;;;;;;4.40;2.83;;;;;;;30.79;11.97;101069.03;5012307;28;20058;-75
2021/03/19 10:45:51;;;;;;;3.70;2.45;;;;;;;31.88;10.96;101070.03;4999313;28;20072;-75
2021/03/19 10:48:24;;;;;;;7.50;6.80;;;;;;;32.90;9.77;101074.88;4997467;28;20070;-76
2021/03/19 10:51:01;;;;;;;4.47;3.13;;;;;;;34.24;9.07;101067.50;5010442;28;20053;-76
2021/03/19 10:53:45;;;;;;;4.75;4.25;;;;;;;33.89;8.98;101072.34;5015643;28;20488;-76
2021/03/19 10:56:14;;;;;;;3.40;2.85;;;;;;;33.06;9.27;101086.34;5014420;28;20057;-76
2021/03/19 10:58:46;;;;;;;3.85;3.00;;;;;;;34.15;8.52;101076.06;5011398;28;20054;-74
2021/03/19 11:01:31;;;;;;;3.05;2.60;;;;;;;35.38;8.42;101082.03;5013337;28;20064;-74
2021/03/19 11:03:58;;;;;;;3.60;3.17;;;;;;;36.17;7.59;101091.31;4997055;28;20435;-74
2021/03/19 11:06:36;;;;;;;3.10;2.80;;;;;;;36.55;7.94;101081.41;5003856;28;20069;-78
2021/03/19 11:09:08;;;;;;;4.30;2.83;;;;;;;37.15;7.28;101080.03;5006782;28;20054;-75
2021/03/19 11:11:35;;;;;;;3.03;2.72;;;;;;;37.96;6.32;101078.69;5009402;28;20434;-76
2021/03/19 11:14:04;;;;;;;2.92;2.58;;;;;;;36.22;7.68;101078.28;4999699;28;20054;-75
2021/03/19 11:16:35;;;;;;;4.93;3.78;;;;;;;36.84;7.65;101085.19;5001448;28;20058;-74
2021/03/19 11:19:06;;;;;;;2.80;2.50;;;;;;;38.08;6.47;101073.97;5014438;28;20056;-76
2021/03/19 11:21:34;;;;;;;3.22;2.78;;;;;;;38.82;6.79;101079.31;5004932;28;20423;-75
2021/03/19 11:24:21;;;;;;;2.80;2.33;;;;;;;39.16;5.90;101075.78;5007069;28;20065;-74
2021/03/19 11:27:11;;;;;;;2.25;2.05;;;;;;;40.13;5.16;101087.00;5005542;28;20061;-75
2021/03/19 11:29:41;;;;;;;2.55;1.50;;;;;;;39.12;5.62;101077.28;5007914;28;20050;-75
2021/03/19 11:32:31;;;;;;;3.10;2.75;;;;;;;39.40;5.04;101083.69;5002283;28;20061;-74
2021/03/19 11:35:14;;;;;;;1.80;1.23;;;;;;;37.88;5.68;101089.06;5006125;28;20066;-75
2021/03/19 11:37:43;;;;;;;2.67;1.60;;;;;;;37.84;6.09;101100.88;5007257;28;20053;-75
2021/03/19 11:40:16;;;;;;;3.22;1.90;;;;;;;37.91;6.30;101094.69;5007267;28;20050;-75
2021/03/19 11:42:50;;;;;;;4.10;2.00;;;;;;;37.93;6.20;101100.84;5005070;28;20065;-75
2021/03/19 11:45:19;;;;;;;3.50;2.15;;;;;;;35.03;6.86;101098.63;5008942;28;20061;-75
2021/03/19 11:48:17;;;;;;;5.22;2.97;;;;;;;35.01;7.76;101096.22;5009712;28;20053;-74
2021/03/19 11:50:46;;;;;;;5.55;3.42;;;;;;;34.47;7.92;101095.22;5007406;28;20054;-74
2021/03/19 11:53:18;;;;;;;4.78;2.35;;;;;;;35.78;6.90;101095.81;5014848;28;20058;-74
2021/03/19 11:55:49;;;;;;;8.48;4.82;;;;;;;37.76;6.78;101088.00;5008913;28;20077;-74
2021/03/19 11:58:21;;;;;;;4.15;2.40;;;;;;;36.84;6.66;101096.81;5008941;28;20064;-76
2021/03/19 12:00:48;;;;;;;7.57;3.97;;;;;;;37.12;5.97;101086.00;5001614;28;20077;-75